sensor_id;sensor_type;location;lat;lon;timestamp;P1;durP1;ratioP1;P2;durP2;ratioP2
66112;SDS011;52893;52.870;5.822;2023-05-23T00:01:49;32.13;;;11.05;;
66112;SDS011;52893;52.870;5.822;2023-05-23T00:04:19;29.50;;;9.95;;
66112;SDS011;52893;52.870;5.822;2023-05-23T00:06:47;28.65;;;9.98;;
66112;SDS011;52893;52.870;5.822;2023-05-23T00:09:15;28.88;;;9.38;;
66112;SDS011;52893;52.870;5.822;2023-05-23T00:11:44;21.52;;;8.85;;
66112;SDS011;52893;52.870;5.822;2023-05-23T00:14:11;29.35;;;10.65;;
66112;SDS011;52893;52.870;5.822;2023-05-23T00:16:39;32.67;;;9.98;;
66112;SDS011;52893;52.870;5.822;2023-05-23T00:19:08;28.50;;;10.30;;
66112;SDS011;52893;52.870;5.822;2023-05-23T00:21:36;28.10;;;8.63;;
66112;SDS011;52893;52.870;5.822;2023-05-23T00:24:06;33.45;;;10.57;;
66112;SDS011;52893;52.870;5.822;2023-05-23T00:26:34;30.08;;;10.32;;
66112;SDS011;52893;52.870;5.822;2023-05-23T00:29:03;25.83;;;10.45;;
66112;SDS011;52893;52.870;5.822;2023-05-23T00:31:30;26.98;;;9.77;;
66112;SDS011;52893;52.870;5.822;2023-05-23T00:33:58;29.02;;;9.73;;
66112;SDS011;52893;52.870;5.822;2023-05-23T00:36:25;25.25;;;9.38;;
66112;SDS011;52893;52.870;5.822;2023-05-23T00:38:52;21.92;;;8.77;;
66112;SDS011;52893;52.870;5.822;2023-05-23T00:41:20;31.45;;;9.40;;
66112;SDS011;52893;52.870;5.822;2023-05-23T00:43:47;25.90;;;8.02;;
66112;SDS011;52893;52.870;5.822;2023-05-23T00:46:16;26.13;;;8.93;;
66112;SDS011;52893;52.870;5.822;2023-05-23T00:48:44;23.63;;;8.13;;
66112;SDS011;52893;52.870;5.822;2023-05-23T00:51:12;23.48;;;7.78;;
66112;SDS011;52893;52.870;5.822;2023-05-23T00:53:40;21.95;;;8.00;;
66112;SDS011;52893;52.870;5.822;2023-05-23T00:56:08;18.17;;;6.43;;
66112;SDS011;52893;52.870;5.822;2023-05-23T00:58:37;26.58;;;7.30;;
66112;SDS011;52893;52.870;5.822;2023-05-23T01:01:05;17.80;;;7.20;;
66112;SDS011;52893;52.870;5.822;2023-05-23T01:03:34;26.33;;;7.88;;
66112;SDS011;52893;52.870;5.822;2023-05-23T01:06:02;22.48;;;6.93;;
66112;SDS011;52893;52.870;5.822;2023-05-23T01:08:30;20.25;;;7.45;;
66112;SDS011;52893;52.870;5.822;2023-05-23T01:10:59;20.45;;;7.38;;
66112;SDS011;52893;52.870;5.822;2023-05-23T01:13:32;21.02;;;7.70;;
66112;SDS011;52893;52.870;5.822;2023-05-23T01:16:06;17.40;;;6.03;;
66112;SDS011;52893;52.870;5.822;2023-05-23T01:18:42;26.70;;;7.90;;
66112;SDS011;52893;52.870;5.822;2023-05-23T01:21:23;30.67;;;7.93;;
66112;SDS011;52893;52.870;5.822;2023-05-23T01:23:59;16.60;;;7.15;;
66112;SDS011;52893;52.870;5.822;2023-05-23T01:26:40;27.02;;;8.48;;
66112;SDS011;52893;52.870;5.822;2023-05-23T01:29:23;23.63;;;8.00;;
66112;SDS011;52893;52.870;5.822;2023-05-23T01:31:53;27.48;;;8.85;;
66112;SDS011;52893;52.870;5.822;2023-05-23T01:34:23;21.08;;;7.40;;
66112;SDS011;52893;52.870;5.822;2023-05-23T01:36:52;18.63;;;7.93;;
66112;SDS011;52893;52.870;5.822;2023-05-23T01:39:20;26.65;;;8.57;;
66112;SDS011;52893;52.870;5.822;2023-05-23T01:41:47;20.13;;;8.20;;
66112;SDS011;52893;52.870;5.822;2023-05-23T01:44:16;26.23;;;7.97;;
66112;SDS011;52893;52.870;5.822;2023-05-23T01:46:45;20.17;;;7.72;;
66112;SDS011;52893;52.870;5.822;2023-05-23T01:49:13;29.35;;;6.90;;
66112;SDS011;52893;52.870;5.822;2023-05-23T01:51:41;21.77;;;7.18;;
66112;SDS011;52893;52.870;5.822;2023-05-23T01:54:09;23.48;;;6.65;;
66112;SDS011;52893;52.870;5.822;2023-05-23T01:56:38;27.42;;;8.13;;
66112;SDS011;52893;52.870;5.822;2023-05-23T01:59:08;21.80;;;6.55;;
66112;SDS011;52893;52.870;5.822;2023-05-23T02:01:35;18.60;;;6.53;;
66112;SDS011;52893;52.870;5.822;2023-05-23T02:04:05;21.42;;;6.80;;
66112;SDS011;52893;52.870;5.822;2023-05-23T02:06:32;18.58;;;6.18;;
66112;SDS011;52893;52.870;5.822;2023-05-23T02:08:59;20.00;;;6.03;;
66112;SDS011;52893;52.870;5.822;2023-05-23T02:11:27;18.13;;;5.18;;
66112;SDS011;52893;52.870;5.822;2023-05-23T02:13:54;29.35;;;7.25;;
66112;SDS011;52893;52.870;5.822;2023-05-23T02:16:21;21.88;;;6.78;;
66112;SDS011;52893;52.870;5.822;2023-05-23T02:18:50;28.45;;;7.50;;
66112;SDS011;52893;52.870;5.822;2023-05-23T02:21:22;26.85;;;6.65;;
66112;SDS011;52893;52.870;5.822;2023-05-23T02:23:49;28.70;;;6.65;;
66112;SDS011;52893;52.870;5.822;2023-05-23T02:26:17;27.58;;;6.32;;
66112;SDS011;52893;52.870;5.822;2023-05-23T02:28:44;21.25;;;5.55;;
66112;SDS011;52893;52.870;5.822;2023-05-23T02:31:14;17.05;;;5.85;;
66112;SDS011;52893;52.870;5.822;2023-05-23T02:33:41;27.13;;;6.47;;
66112;SDS011;52893;52.870;5.822;2023-05-23T02:36:09;24.67;;;7.22;;
66112;SDS011;52893;52.870;5.822;2023-05-23T02:38:37;20.33;;;6.10;;
66112;SDS011;52893;52.870;5.822;2023-05-23T02:41:04;23.17;;;6.72;;
66112;SDS011;52893;52.870;5.822;2023-05-23T02:43:32;26.10;;;6.10;;
66112;SDS011;52893;52.870;5.822;2023-05-23T02:46:01;22.05;;;6.68;;
66112;SDS011;52893;52.870;5.822;2023-05-23T02:48:28;36.83;;;7.22;;
66112;SDS011;52893;52.870;5.822;2023-05-23T02:50:57;23.63;;;6.88;;
66112;SDS011;52893;52.870;5.822;2023-05-23T02:53:25;24.42;;;6.35;;
66112;SDS011;52893;52.870;5.822;2023-05-23T02:55:55;19.33;;;6.47;;
66112;SDS011;52893;52.870;5.822;2023-05-23T02:58:22;26.08;;;6.03;;
66112;SDS011;52893;52.870;5.822;2023-05-23T03:00:50;19.23;;;6.10;;
66112;SDS011;52893;52.870;5.822;2023-05-23T03:03:17;29.05;;;7.25;;
66112;SDS011;52893;52.870;5.822;2023-05-23T03:05:45;23.27;;;5.97;;
66112;SDS011;52893;52.870;5.822;2023-05-23T03:08:12;22.45;;;5.88;;
66112;SDS011;52893;52.870;5.822;2023-05-23T03:10:39;21.75;;;5.57;;
66112;SDS011;52893;52.870;5.822;2023-05-23T03:13:08;14.57;;;5.45;;
66112;SDS011;52893;52.870;5.822;2023-05-23T03:15:35;32.10;;;6.18;;
66112;SDS011;52893;52.870;5.822;2023-05-23T03:18:04;22.58;;;5.63;;
66112;SDS011;52893;52.870;5.822;2023-05-23T03:20:31;22.50;;;5.95;;
66112;SDS011;52893;52.870;5.822;2023-05-23T03:22:59;27.17;;;5.43;;
66112;SDS011;52893;52.870;5.822;2023-05-23T03:25:26;20.23;;;4.85;;
66112;SDS011;52893;52.870;5.822;2023-05-23T03:27:53;22.38;;;5.53;;
66112;SDS011;52893;52.870;5.822;2023-05-23T03:30:22;23.00;;;4.03;;
66112;SDS011;52893;52.870;5.822;2023-05-23T03:32:50;19.98;;;4.57;;
66112;SDS011;52893;52.870;5.822;2023-05-23T03:35:18;17.83;;;4.07;;
66112;SDS011;52893;52.870;5.822;2023-05-23T03:37:48;21.27;;;4.70;;
66112;SDS011;52893;52.870;5.822;2023-05-23T03:40:16;23.60;;;4.40;;
66112;SDS011;52893;52.870;5.822;2023-05-23T03:42:46;27.77;;;4.38;;
66112;SDS011;52893;52.870;5.822;2023-05-23T03:45:14;15.60;;;3.92;;
66112;SDS011;52893;52.870;5.822;2023-05-23T03:47:44;15.27;;;3.80;;
66112;SDS011;52893;52.870;5.822;2023-05-23T03:50:11;20.50;;;3.80;;
66112;SDS011;52893;52.870;5.822;2023-05-23T03:52:39;18.55;;;4.95;;
66112;SDS011;52893;52.870;5.822;2023-05-23T03:55:07;16.67;;;4.60;;
66112;SDS011;52893;52.870;5.822;2023-05-23T03:57:36;15.32;;;3.67;;
66112;SDS011;52893;52.870;5.822;2023-05-23T04:00:03;20.70;;;4.95;;
66112;SDS011;52893;52.870;5.822;2023-05-23T04:02:42;21.83;;;4.10;;
66112;SDS011;52893;52.870;5.822;2023-05-23T04:05:14;16.13;;;4.90;;
66112;SDS011;52893;52.870;5.822;2023-05-23T04:07:42;11.15;;;2.97;;
66112;SDS011;52893;52.870;5.822;2023-05-23T04:10:10;14.93;;;4.40;;
66112;SDS011;52893;52.870;5.822;2023-05-23T04:12:40;17.65;;;4.03;;
66112;SDS011;52893;52.870;5.822;2023-05-23T04:15:12;19.63;;;4.97;;
66112;SDS011;52893;52.870;5.822;2023-05-23T04:17:53;19.85;;;4.28;;
66112;SDS011;52893;52.870;5.822;2023-05-23T04:20:22;21.23;;;4.15;;
66112;SDS011;52893;52.870;5.822;2023-05-23T04:22:50;16.98;;;3.65;;
66112;SDS011;52893;52.870;5.822;2023-05-23T04:25:18;20.20;;;4.05;;
66112;SDS011;52893;52.870;5.822;2023-05-23T04:28:06;18.42;;;3.90;;
66112;SDS011;52893;52.870;5.822;2023-05-23T04:30:35;18.30;;;4.20;;
66112;SDS011;52893;52.870;5.822;2023-05-23T04:33:04;25.80;;;3.65;;
66112;SDS011;52893;52.870;5.822;2023-05-23T04:35:37;13.20;;;4.00;;
66112;SDS011;52893;52.870;5.822;2023-05-23T04:38:06;11.65;;;3.70;;
66112;SDS011;52893;52.870;5.822;2023-05-23T04:40:35;14.55;;;3.25;;
66112;SDS011;52893;52.870;5.822;2023-05-23T04:43:35;10.50;;;3.40;;
66112;SDS011;52893;52.870;5.822;2023-05-23T04:46:15;20.92;;;4.65;;
66112;SDS011;52893;52.870;5.822;2023-05-23T04:48:44;19.48;;;4.35;;
66112;SDS011;52893;52.870;5.822;2023-05-23T04:51:16;18.25;;;4.03;;
66112;SDS011;52893;52.870;5.822;2023-05-23T04:53:51;17.55;;;4.30;;
66112;SDS011;52893;52.870;5.822;2023-05-23T04:56:19;15.88;;;3.85;;
66112;SDS011;52893;52.870;5.822;2023-05-23T04:58:47;15.13;;;4.45;;
66112;SDS011;52893;52.870;5.822;2023-05-23T05:01:15;12.52;;;4.43;;
66112;SDS011;52893;52.870;5.822;2023-05-23T05:03:42;13.27;;;4.05;;
66112;SDS011;52893;52.870;5.822;2023-05-23T05:06:10;14.10;;;3.65;;
66112;SDS011;52893;52.870;5.822;2023-05-23T05:08:39;19.70;;;4.05;;
66112;SDS011;52893;52.870;5.822;2023-05-23T05:11:07;16.85;;;3.88;;
66112;SDS011;52893;52.870;5.822;2023-05-23T05:13:35;19.95;;;4.60;;
66112;SDS011;52893;52.870;5.822;2023-05-23T05:16:04;18.45;;;4.55;;
66112;SDS011;52893;52.870;5.822;2023-05-23T05:18:34;16.67;;;4.03;;
66112;SDS011;52893;52.870;5.822;2023-05-23T05:21:02;20.58;;;4.80;;
66112;SDS011;52893;52.870;5.822;2023-05-23T05:23:30;18.75;;;4.65;;
66112;SDS011;52893;52.870;5.822;2023-05-23T05:26:00;15.85;;;4.40;;
66112;SDS011;52893;52.870;5.822;2023-05-23T05:28:28;13.48;;;4.80;;
66112;SDS011;52893;52.870;5.822;2023-05-23T05:30:58;19.58;;;4.38;;
66112;SDS011;52893;52.870;5.822;2023-05-23T05:33:32;12.23;;;4.38;;
66112;SDS011;52893;52.870;5.822;2023-05-23T05:36:08;17.92;;;4.60;;
66112;SDS011;52893;52.870;5.822;2023-05-23T05:38:36;15.65;;;4.50;;
66112;SDS011;52893;52.870;5.822;2023-05-23T05:41:05;14.88;;;4.50;;
66112;SDS011;52893;52.870;5.822;2023-05-23T05:43:35;13.88;;;4.00;;
66112;SDS011;52893;52.870;5.822;2023-05-23T05:46:03;19.63;;;4.43;;
66112;SDS011;52893;52.870;5.822;2023-05-23T05:48:31;10.68;;;2.78;;
66112;SDS011;52893;52.870;5.822;2023-05-23T05:51:03;13.20;;;3.70;;
66112;SDS011;52893;52.870;5.822;2023-05-23T05:53:32;17.02;;;2.90;;
66112;SDS011;52893;52.870;5.822;2023-05-23T05:56:00;12.63;;;2.85;;
66112;SDS011;52893;52.870;5.822;2023-05-23T05:58:30;20.85;;;3.05;;
66112;SDS011;52893;52.870;5.822;2023-05-23T06:01:01;17.15;;;3.20;;
66112;SDS011;52893;52.870;5.822;2023-05-23T06:03:28;10.50;;;2.30;;
66112;SDS011;52893;52.870;5.822;2023-05-23T06:05:57;13.85;;;2.88;;
66112;SDS011;52893;52.870;5.822;2023-05-23T06:08:25;12.75;;;2.28;;
66112;SDS011;52893;52.870;5.822;2023-05-23T06:10:52;18.08;;;2.67;;
66112;SDS011;52893;52.870;5.822;2023-05-23T06:13:21;17.98;;;2.85;;
66112;SDS011;52893;52.870;5.822;2023-05-23T06:15:53;20.48;;;2.50;;
66112;SDS011;52893;52.870;5.822;2023-05-23T06:18:22;13.43;;;2.58;;
66112;SDS011;52893;52.870;5.822;2023-05-23T06:20:50;21.67;;;2.80;;
66112;SDS011;52893;52.870;5.822;2023-05-23T06:23:23;13.00;;;2.90;;
66112;SDS011;52893;52.870;5.822;2023-05-23T06:25:51;16.90;;;2.25;;
66112;SDS011;52893;52.870;5.822;2023-05-23T06:28:18;25.15;;;3.28;;
66112;SDS011;52893;52.870;5.822;2023-05-23T06:30:45;17.17;;;3.00;;
66112;SDS011;52893;52.870;5.822;2023-05-23T06:33:14;17.45;;;3.45;;
66112;SDS011;52893;52.870;5.822;2023-05-23T06:35:42;19.13;;;2.63;;
66112;SDS011;52893;52.870;5.822;2023-05-23T06:38:09;12.20;;;1.77;;
66112;SDS011;52893;52.870;5.822;2023-05-23T06:40:36;21.77;;;3.50;;
66112;SDS011;52893;52.870;5.822;2023-05-23T06:43:03;15.73;;;2.80;;
66112;SDS011;52893;52.870;5.822;2023-05-23T06:45:54;13.90;;;2.53;;
66112;SDS011;52893;52.870;5.822;2023-05-23T06:48:23;16.55;;;3.13;;
66112;SDS011;52893;52.870;5.822;2023-05-23T06:50:50;17.50;;;2.53;;
66112;SDS011;52893;52.870;5.822;2023-05-23T06:53:18;16.33;;;2.65;;
66112;SDS011;52893;52.870;5.822;2023-05-23T06:55:48;21.80;;;3.10;;
66112;SDS011;52893;52.870;5.822;2023-05-23T06:58:20;20.30;;;3.10;;
66112;SDS011;52893;52.870;5.822;2023-05-23T07:00:50;16.00;;;2.85;;
66112;SDS011;52893;52.870;5.822;2023-05-23T07:03:32;19.77;;;3.15;;
66112;SDS011;52893;52.870;5.822;2023-05-23T07:08:32;21.38;;;3.55;;
66112;SDS011;52893;52.870;5.822;2023-05-23T07:11:00;13.88;;;2.13;;
66112;SDS011;52893;52.870;5.822;2023-05-23T07:13:40;18.30;;;2.50;;
66112;SDS011;52893;52.870;5.822;2023-05-23T07:16:12;23.10;;;2.53;;
66112;SDS011;52893;52.870;5.822;2023-05-23T07:18:55;17.83;;;2.95;;
66112;SDS011;52893;52.870;5.822;2023-05-23T07:21:22;15.63;;;2.13;;
66112;SDS011;52893;52.870;5.822;2023-05-23T07:23:50;22.50;;;2.83;;
66112;SDS011;52893;52.870;5.822;2023-05-23T07:26:19;20.90;;;2.53;;
66112;SDS011;52893;52.870;5.822;2023-05-23T07:28:52;21.67;;;2.78;;
66112;SDS011;52893;52.870;5.822;2023-05-23T07:31:21;24.30;;;2.80;;
66112;SDS011;52893;52.870;5.822;2023-05-23T07:33:51;23.77;;;2.50;;
66112;SDS011;52893;52.870;5.822;2023-05-23T07:38:54;14.43;;;2.60;;
66112;SDS011;52893;52.870;5.822;2023-05-23T07:41:21;17.17;;;3.33;;
66112;SDS011;52893;52.870;5.822;2023-05-23T07:43:49;22.25;;;2.53;;
66112;SDS011;52893;52.870;5.822;2023-05-23T07:46:17;17.08;;;2.78;;
66112;SDS011;52893;52.870;5.822;2023-05-23T07:48:45;35.95;;;2.97;;
66112;SDS011;52893;52.870;5.822;2023-05-23T07:51:13;18.42;;;2.70;;
66112;SDS011;52893;52.870;5.822;2023-05-23T07:53:42;14.88;;;2.53;;
66112;SDS011;52893;52.870;5.822;2023-05-23T07:56:11;13.63;;;3.10;;
66112;SDS011;52893;52.870;5.822;2023-05-23T07:58:41;18.88;;;2.83;;
66112;SDS011;52893;52.870;5.822;2023-05-23T08:01:08;16.90;;;2.30;;
66112;SDS011;52893;52.870;5.822;2023-05-23T08:04:06;21.10;;;3.45;;
66112;SDS011;52893;52.870;5.822;2023-05-23T08:06:42;16.92;;;2.75;;
66112;SDS011;52893;52.870;5.822;2023-05-23T08:09:33;13.30;;;2.72;;
66112;SDS011;52893;52.870;5.822;2023-05-23T08:12:01;14.02;;;2.47;;
66112;SDS011;52893;52.870;5.822;2023-05-23T08:14:28;21.00;;;2.70;;
66112;SDS011;52893;52.870;5.822;2023-05-23T08:17:15;13.65;;;2.85;;
66112;SDS011;52893;52.870;5.822;2023-05-23T08:19:42;16.02;;;2.33;;
66112;SDS011;52893;52.870;5.822;2023-05-23T08:22:10;17.38;;;2.63;;
66112;SDS011;52893;52.870;5.822;2023-05-23T08:24:39;16.85;;;3.25;;
66112;SDS011;52893;52.870;5.822;2023-05-23T08:27:06;15.45;;;2.55;;
66112;SDS011;52893;52.870;5.822;2023-05-23T08:29:34;17.40;;;3.78;;
66112;SDS011;52893;52.870;5.822;2023-05-23T08:32:03;15.93;;;2.80;;
66112;SDS011;52893;52.870;5.822;2023-05-23T08:34:31;17.73;;;2.65;;
66112;SDS011;52893;52.870;5.822;2023-05-23T08:36:58;16.23;;;2.83;;
66112;SDS011;52893;52.870;5.822;2023-05-23T08:39:26;13.27;;;2.35;;
66112;SDS011;52893;52.870;5.822;2023-05-23T08:42:06;18.77;;;2.85;;
66112;SDS011;52893;52.870;5.822;2023-05-23T08:44:33;18.55;;;3.28;;
66112;SDS011;52893;52.870;5.822;2023-05-23T08:47:02;17.75;;;2.42;;
66112;SDS011;52893;52.870;5.822;2023-05-23T08:49:42;18.70;;;3.17;;
66112;SDS011;52893;52.870;5.822;2023-05-23T08:52:10;16.33;;;2.70;;
66112;SDS011;52893;52.870;5.822;2023-05-23T08:54:41;18.02;;;2.53;;
66112;SDS011;52893;52.870;5.822;2023-05-23T08:57:12;17.02;;;2.40;;
66112;SDS011;52893;52.870;5.822;2023-05-23T08:59:47;13.32;;;2.30;;
66112;SDS011;52893;52.870;5.822;2023-05-23T09:02:15;16.75;;;2.83;;
66112;SDS011;52893;52.870;5.822;2023-05-23T09:04:46;11.60;;;2.10;;
66112;SDS011;52893;52.870;5.822;2023-05-23T09:07:17;21.63;;;2.95;;
66112;SDS011;52893;52.870;5.822;2023-05-23T09:09:46;14.75;;;3.20;;
66112;SDS011;52893;52.870;5.822;2023-05-23T09:12:15;12.70;;;2.42;;
66112;SDS011;52893;52.870;5.822;2023-05-23T09:14:45;27.40;;;2.53;;
66112;SDS011;52893;52.870;5.822;2023-05-23T09:17:14;13.52;;;2.55;;
66112;SDS011;52893;52.870;5.822;2023-05-23T09:19:45;15.38;;;2.38;;
66112;SDS011;52893;52.870;5.822;2023-05-23T09:22:23;13.32;;;2.05;;
66112;SDS011;52893;52.870;5.822;2023-05-23T09:25:07;13.88;;;2.05;;
66112;SDS011;52893;52.870;5.822;2023-05-23T09:27:37;24.25;;;2.70;;
66112;SDS011;52893;52.870;5.822;2023-05-23T09:30:05;15.40;;;2.10;;
66112;SDS011;52893;52.870;5.822;2023-05-23T09:32:33;22.13;;;2.60;;
66112;SDS011;52893;52.870;5.822;2023-05-23T09:35:01;18.50;;;2.85;;
66112;SDS011;52893;52.870;5.822;2023-05-23T09:37:30;15.23;;;2.10;;
66112;SDS011;52893;52.870;5.822;2023-05-23T09:39:59;15.50;;;2.47;;
66112;SDS011;52893;52.870;5.822;2023-05-23T09:42:30;15.18;;;2.35;;
66112;SDS011;52893;52.870;5.822;2023-05-23T09:45:00;26.08;;;3.15;;
66112;SDS011;52893;52.870;5.822;2023-05-23T09:47:29;18.30;;;2.88;;
66112;SDS011;52893;52.870;5.822;2023-05-23T09:49:56;18.13;;;3.20;;
66112;SDS011;52893;52.870;5.822;2023-05-23T09:52:23;19.52;;;3.22;;
66112;SDS011;52893;52.870;5.822;2023-05-23T09:54:51;24.65;;;3.17;;
66112;SDS011;52893;52.870;5.822;2023-05-23T09:57:18;17.63;;;2.50;;
66112;SDS011;52893;52.870;5.822;2023-05-23T09:59:51;19.48;;;2.55;;
66112;SDS011;52893;52.870;5.822;2023-05-23T10:02:29;11.93;;;2.35;;
66112;SDS011;52893;52.870;5.822;2023-05-23T10:05:21;22.00;;;2.42;;
66112;SDS011;52893;52.870;5.822;2023-05-23T10:07:57;17.92;;;3.00;;
66112;SDS011;52893;52.870;5.822;2023-05-23T10:10:28;10.18;;;1.88;;
66112;SDS011;52893;52.870;5.822;2023-05-23T10:12:58;14.45;;;1.83;;
66112;SDS011;52893;52.870;5.822;2023-05-23T10:15:30;11.48;;;2.00;;
66112;SDS011;52893;52.870;5.822;2023-05-23T10:18:07;16.00;;;2.20;;
66112;SDS011;52893;52.870;5.822;2023-05-23T10:20:38;11.60;;;2.20;;
66112;SDS011;52893;52.870;5.822;2023-05-23T10:23:08;10.88;;;2.30;;
66112;SDS011;52893;52.870;5.822;2023-05-23T10:25:36;18.90;;;2.25;;
66112;SDS011;52893;52.870;5.822;2023-05-23T10:28:03;15.63;;;2.38;;
66112;SDS011;52893;52.870;5.822;2023-05-23T10:30:31;12.00;;;2.13;;
66112;SDS011;52893;52.870;5.822;2023-05-23T10:33:02;13.05;;;2.03;;
66112;SDS011;52893;52.870;5.822;2023-05-23T10:35:40;16.10;;;2.40;;
66112;SDS011;52893;52.870;5.822;2023-05-23T10:38:22;10.73;;;1.98;;
66112;SDS011;52893;52.870;5.822;2023-05-23T10:41:00;8.57;;;2.00;;
66112;SDS011;52893;52.870;5.822;2023-05-23T10:43:34;10.18;;;2.17;;
66112;SDS011;52893;52.870;5.822;2023-05-23T10:46:07;12.13;;;2.30;;
66112;SDS011;52893;52.870;5.822;2023-05-23T10:48:35;11.02;;;2.13;;
66112;SDS011;52893;52.870;5.822;2023-05-23T10:51:09;14.88;;;2.90;;
66112;SDS011;52893;52.870;5.822;2023-05-23T10:53:39;11.35;;;2.15;;
66112;SDS011;52893;52.870;5.822;2023-05-23T10:56:08;13.40;;;2.72;;
66112;SDS011;52893;52.870;5.822;2023-05-23T10:58:37;20.73;;;3.10;;
66112;SDS011;52893;52.870;5.822;2023-05-23T11:01:06;13.23;;;2.47;;
66112;SDS011;52893;52.870;5.822;2023-05-23T11:03:35;16.13;;;2.15;;
66112;SDS011;52893;52.870;5.822;2023-05-23T11:06:28;13.52;;;2.22;;
66112;SDS011;52893;52.870;5.822;2023-05-23T11:09:03;13.00;;;2.60;;
66112;SDS011;52893;52.870;5.822;2023-05-23T11:11:50;11.85;;;2.53;;
66112;SDS011;52893;52.870;5.822;2023-05-23T11:14:18;16.50;;;3.33;;
66112;SDS011;52893;52.870;5.822;2023-05-23T11:16:46;16.75;;;2.33;;
66112;SDS011;52893;52.870;5.822;2023-05-23T11:19:21;9.95;;;2.00;;
66112;SDS011;52893;52.870;5.822;2023-05-23T11:21:56;15.57;;;2.22;;
66112;SDS011;52893;52.870;5.822;2023-05-23T11:27:24;18.40;;;3.20;;
66112;SDS011;52893;52.870;5.822;2023-05-23T11:29:56;14.57;;;2.75;;
66112;SDS011;52893;52.870;5.822;2023-05-23T11:32:28;11.73;;;2.30;;
66112;SDS011;52893;52.870;5.822;2023-05-23T11:35:00;11.70;;;1.98;;
66112;SDS011;52893;52.870;5.822;2023-05-23T11:37:29;7.97;;;1.92;;
66112;SDS011;52893;52.870;5.822;2023-05-23T11:39:57;11.55;;;2.67;;
66112;SDS011;52893;52.870;5.822;2023-05-23T11:42:24;13.02;;;2.67;;
66112;SDS011;52893;52.870;5.822;2023-05-23T11:44:51;10.68;;;1.73;;
66112;SDS011;52893;52.870;5.822;2023-05-23T11:47:19;13.60;;;2.30;;
66112;SDS011;52893;52.870;5.822;2023-05-23T11:49:46;11.93;;;1.85;;
66112;SDS011;52893;52.870;5.822;2023-05-23T11:52:14;13.63;;;2.22;;
66112;SDS011;52893;52.870;5.822;2023-05-23T11:54:42;14.95;;;2.47;;
66112;SDS011;52893;52.870;5.822;2023-05-23T11:57:10;12.85;;;1.90;;
66112;SDS011;52893;52.870;5.822;2023-05-23T11:59:39;8.05;;;1.80;;
66112;SDS011;52893;52.870;5.822;2023-05-23T12:02:07;7.90;;;1.83;;
66112;SDS011;52893;52.870;5.822;2023-05-23T12:04:34;12.95;;;1.83;;
66112;SDS011;52893;52.870;5.822;2023-05-23T12:07:03;17.92;;;2.50;;
66112;SDS011;52893;52.870;5.822;2023-05-23T12:09:40;13.73;;;2.00;;
66112;SDS011;52893;52.870;5.822;2023-05-23T12:12:12;18.80;;;2.22;;
66112;SDS011;52893;52.870;5.822;2023-05-23T12:14:41;11.07;;;1.95;;
66112;SDS011;52893;52.870;5.822;2023-05-23T12:17:10;11.63;;;2.45;;
66112;SDS011;52893;52.870;5.822;2023-05-23T12:19:37;9.10;;;2.05;;
66112;SDS011;52893;52.870;5.822;2023-05-23T12:22:05;17.13;;;2.50;;
66112;SDS011;52893;52.870;5.822;2023-05-23T12:24:33;18.40;;;2.50;;
66112;SDS011;52893;52.870;5.822;2023-05-23T12:27:01;16.15;;;2.40;;
66112;SDS011;52893;52.870;5.822;2023-05-23T12:29:31;14.85;;;2.70;;
66112;SDS011;52893;52.870;5.822;2023-05-23T12:32:00;9.75;;;2.00;;
66112;SDS011;52893;52.870;5.822;2023-05-23T12:34:28;9.32;;;1.98;;
66112;SDS011;52893;52.870;5.822;2023-05-23T12:36:55;11.57;;;2.28;;
66112;SDS011;52893;52.870;5.822;2023-05-23T12:39:23;17.58;;;2.08;;
66112;SDS011;52893;52.870;5.822;2023-05-23T12:41:52;16.73;;;2.63;;
66112;SDS011;52893;52.870;5.822;2023-05-23T12:44:21;12.63;;;2.10;;
66112;SDS011;52893;52.870;5.822;2023-05-23T12:46:50;15.32;;;2.38;;
66112;SDS011;52893;52.870;5.822;2023-05-23T12:49:17;7.72;;;1.92;;
66112;SDS011;52893;52.870;5.822;2023-05-23T12:51:44;16.80;;;2.33;;
66112;SDS011;52893;52.870;5.822;2023-05-23T12:54:12;8.63;;;1.80;;
66112;SDS011;52893;52.870;5.822;2023-05-23T12:56:40;11.43;;;1.63;;
66112;SDS011;52893;52.870;5.822;2023-05-23T12:59:07;12.82;;;1.73;;
66112;SDS011;52893;52.870;5.822;2023-05-23T13:01:34;11.07;;;2.38;;
66112;SDS011;52893;52.870;5.822;2023-05-23T13:04:03;16.60;;;3.03;;
66112;SDS011;52893;52.870;5.822;2023-05-23T13:06:31;8.98;;;1.73;;
66112;SDS011;52893;52.870;5.822;2023-05-23T13:08:59;11.77;;;1.70;;
66112;SDS011;52893;52.870;5.822;2023-05-23T13:11:27;12.60;;;2.40;;
66112;SDS011;52893;52.870;5.822;2023-05-23T13:13:56;12.10;;;1.98;;
66112;SDS011;52893;52.870;5.822;2023-05-23T13:16:23;11.48;;;2.03;;
66112;SDS011;52893;52.870;5.822;2023-05-23T13:18:50;13.38;;;2.28;;
66112;SDS011;52893;52.870;5.822;2023-05-23T13:21:19;12.27;;;1.77;;
66112;SDS011;52893;52.870;5.822;2023-05-23T13:23:47;10.25;;;2.10;;
66112;SDS011;52893;52.870;5.822;2023-05-23T13:26:14;9.45;;;1.85;;
66112;SDS011;52893;52.870;5.822;2023-05-23T13:28:42;16.00;;;2.42;;
66112;SDS011;52893;52.870;5.822;2023-05-23T13:31:09;15.68;;;2.50;;
66112;SDS011;52893;52.870;5.822;2023-05-23T13:33:36;8.02;;;1.98;;
66112;SDS011;52893;52.870;5.822;2023-05-23T13:36:03;11.48;;;1.92;;
66112;SDS011;52893;52.870;5.822;2023-05-23T13:38:32;15.23;;;2.45;;
66112;SDS011;52893;52.870;5.822;2023-05-23T13:41:00;11.80;;;1.90;;
66112;SDS011;52893;52.870;5.822;2023-05-23T13:43:27;18.30;;;2.08;;
66112;SDS011;52893;52.870;5.822;2023-05-23T13:45:54;9.27;;;1.75;;
66112;SDS011;52893;52.870;5.822;2023-05-23T13:48:23;10.52;;;1.83;;
66112;SDS011;52893;52.870;5.822;2023-05-23T13:50:50;16.33;;;2.28;;
66112;SDS011;52893;52.870;5.822;2023-05-23T13:53:18;9.48;;;1.65;;
66112;SDS011;52893;52.870;5.822;2023-05-23T13:55:51;12.35;;;2.08;;
66112;SDS011;52893;52.870;5.822;2023-05-23T13:58:19;8.27;;;1.98;;
66112;SDS011;52893;52.870;5.822;2023-05-23T14:00:48;13.68;;;1.90;;
66112;SDS011;52893;52.870;5.822;2023-05-23T14:03:15;16.25;;;2.28;;
66112;SDS011;52893;52.870;5.822;2023-05-23T14:05:44;9.80;;;1.98;;
66112;SDS011;52893;52.870;5.822;2023-05-23T14:08:11;8.05;;;1.80;;
66112;SDS011;52893;52.870;5.822;2023-05-23T14:10:39;13.88;;;2.22;;
66112;SDS011;52893;52.870;5.822;2023-05-23T14:13:07;12.80;;;2.00;;
66112;SDS011;52893;52.870;5.822;2023-05-23T14:15:35;7.72;;;1.75;;
66112;SDS011;52893;52.870;5.822;2023-05-23T14:18:03;10.52;;;1.83;;
66112;SDS011;52893;52.870;5.822;2023-05-23T14:20:32;7.63;;;1.83;;
66112;SDS011;52893;52.870;5.822;2023-05-23T14:22:59;10.18;;;1.90;;
66112;SDS011;52893;52.870;5.822;2023-05-23T14:25:26;6.70;;;1.83;;
66112;SDS011;52893;52.870;5.822;2023-05-23T14:27:55;11.40;;;1.90;;
66112;SDS011;52893;52.870;5.822;2023-05-23T14:30:23;9.75;;;2.08;;
66112;SDS011;52893;52.870;5.822;2023-05-23T14:32:51;9.23;;;2.00;;
66112;SDS011;52893;52.870;5.822;2023-05-23T14:35:19;10.55;;;1.98;;
66112;SDS011;52893;52.870;5.822;2023-05-23T14:37:47;12.07;;;2.13;;
66112;SDS011;52893;52.870;5.822;2023-05-23T14:40:14;16.90;;;2.35;;
66112;SDS011;52893;52.870;5.822;2023-05-23T14:42:42;9.63;;;2.03;;
66112;SDS011;52893;52.870;5.822;2023-05-23T14:45:09;9.55;;;1.98;;
66112;SDS011;52893;52.870;5.822;2023-05-23T14:47:39;15.05;;;1.80;;
66112;SDS011;52893;52.870;5.822;2023-05-23T14:50:07;10.45;;;1.67;;
66112;SDS011;52893;52.870;5.822;2023-05-23T14:52:34;7.18;;;1.60;;
66112;SDS011;52893;52.870;5.822;2023-05-23T14:55:02;9.60;;;1.38;;
66112;SDS011;52893;52.870;5.822;2023-05-23T14:57:29;9.75;;;1.88;;
66112;SDS011;52893;52.870;5.822;2023-05-23T14:59:57;10.23;;;1.65;;